sensor_id;sensor_type;location;lat;lon;timestamp;P1;durP1;ratioP1;P2;durP2;ratioP2
63902;SDS011;50072;50.678;13.938;2023-03-20T00:01:14;59.10;;;32.50;;
63902;SDS011;50072;50.678;13.938;2023-03-20T00:03:43;57.38;;;31.33;;
63902;SDS011;50072;50.678;13.938;2023-03-20T00:06:20;56.45;;;30.42;;
63902;SDS011;50072;50.678;13.938;2023-03-20T00:08:56;62.92;;;30.45;;
63902;SDS011;50072;50.678;13.938;2023-03-20T00:11:43;57.45;;;30.00;;
63902;SDS011;50072;50.678;13.938;2023-03-20T00:14:13;64.60;;;32.60;;
63902;SDS011;50072;50.678;13.938;2023-03-20T00:16:43;58.65;;;30.27;;
63902;SDS011;50072;50.678;13.938;2023-03-20T00:19:26;60.95;;;30.63;;
63902;SDS011;50072;50.678;13.938;2023-03-20T00:22:01;62.80;;;31.95;;
63902;SDS011;50072;50.678;13.938;2023-03-20T00:24:29;62.05;;;32.83;;
63902;SDS011;50072;50.678;13.938;2023-03-20T00:32:04;56.70;;;30.63;;
63902;SDS011;50072;50.678;13.938;2023-03-20T00:34:31;62.65;;;30.85;;
63902;SDS011;50072;50.678;13.938;2023-03-20T00:36:57;65.95;;;32.63;;
63902;SDS011;50072;50.678;13.938;2023-03-20T00:39:26;72.60;;;34.40;;
63902;SDS011;50072;50.678;13.938;2023-03-20T00:44:43;59.92;;;31.05;;
63902;SDS011;50072;50.678;13.938;2023-03-20T00:47:23;68.88;;;33.47;;
63902;SDS011;50072;50.678;13.938;2023-03-20T00:52:26;62.22;;;31.45;;
63902;SDS011;50072;50.678;13.938;2023-03-20T00:54:59;62.60;;;30.08;;
63902;SDS011;50072;50.678;13.938;2023-03-20T00:57:36;60.38;;;29.55;;
63902;SDS011;50072;50.678;13.938;2023-03-20T01:00:24;59.08;;;29.88;;
63902;SDS011;50072;50.678;13.938;2023-03-20T01:05:43;62.65;;;30.13;;
63902;SDS011;50072;50.678;13.938;2023-03-20T01:08:17;60.15;;;30.80;;
63902;SDS011;50072;50.678;13.938;2023-03-20T01:16:37;54.28;;;29.13;;
63902;SDS011;50072;50.678;13.938;2023-03-20T01:21:33;61.60;;;30.10;;
63902;SDS011;50072;50.678;13.938;2023-03-20T01:23:59;62.72;;;30.38;;
63902;SDS011;50072;50.678;13.938;2023-03-20T01:26:37;57.28;;;29.25;;
63902;SDS011;50072;50.678;13.938;2023-03-20T01:29:17;50.10;;;26.88;;
63902;SDS011;50072;50.678;13.938;2023-03-20T01:31:47;51.38;;;26.40;;
63902;SDS011;50072;50.678;13.938;2023-03-20T01:34:15;55.80;;;27.33;;
63902;SDS011;50072;50.678;13.938;2023-03-20T01:36:52;53.95;;;27.10;;
63902;SDS011;50072;50.678;13.938;2023-03-20T01:39:21;52.70;;;27.90;;
63902;SDS011;50072;50.678;13.938;2023-03-20T01:44:38;63.13;;;31.42;;
63902;SDS011;50072;50.678;13.938;2023-03-20T01:47:10;84.20;;;34.03;;
63902;SDS011;50072;50.678;13.938;2023-03-20T01:53:00;63.78;;;30.20;;
63902;SDS011;50072;50.678;13.938;2023-03-20T01:58:13;59.88;;;28.42;;
63902;SDS011;50072;50.678;13.938;2023-03-20T02:00:43;55.90;;;27.90;;
63902;SDS011;50072;50.678;13.938;2023-03-20T02:03:11;60.53;;;28.83;;
63902;SDS011;50072;50.678;13.938;2023-03-20T02:05:38;58.35;;;30.00;;
63902;SDS011;50072;50.678;13.938;2023-03-20T02:08:10;56.08;;;28.95;;
63902;SDS011;50072;50.678;13.938;2023-03-20T02:10:46;55.58;;;28.90;;
63902;SDS011;50072;50.678;13.938;2023-03-20T02:13:13;54.90;;;28.15;;
63902;SDS011;50072;50.678;13.938;2023-03-20T02:15:53;62.47;;;30.70;;
63902;SDS011;50072;50.678;13.938;2023-03-20T02:18:25;58.47;;;31.63;;
63902;SDS011;50072;50.678;13.938;2023-03-20T02:23:50;56.63;;;29.38;;
63902;SDS011;50072;50.678;13.938;2023-03-20T02:38:00;66.65;;;34.15;;
63902;SDS011;50072;50.678;13.938;2023-03-20T02:41:00;65.00;;;33.22;;
63902;SDS011;50072;50.678;13.938;2023-03-20T02:51:47;66.63;;;33.88;;
63902;SDS011;50072;50.678;13.938;2023-03-20T03:02:11;72.22;;;35.30;;
63902;SDS011;50072;50.678;13.938;2023-03-20T03:04:48;59.25;;;31.40;;
63902;SDS011;50072;50.678;13.938;2023-03-20T03:07:23;59.88;;;30.15;;
63902;SDS011;50072;50.678;13.938;2023-03-20T03:13:02;61.13;;;29.50;;
63902;SDS011;50072;50.678;13.938;2023-03-20T03:15:49;72.20;;;31.98;;
63902;SDS011;50072;50.678;13.938;2023-03-20T03:18:24;61.25;;;27.30;;
63902;SDS011;50072;50.678;13.938;2023-03-20T03:23:30;49.22;;;25.65;;
63902;SDS011;50072;50.678;13.938;2023-03-20T03:26:14;53.83;;;26.80;;
63902;SDS011;50072;50.678;13.938;2023-03-20T03:28:55;63.38;;;29.02;;
63902;SDS011;50072;50.678;13.938;2023-03-20T03:31:26;53.50;;;28.52;;
63902;SDS011;50072;50.678;13.938;2023-03-20T03:33:55;57.90;;;28.10;;
63902;SDS011;50072;50.678;13.938;2023-03-20T03:45:18;57.45;;;28.38;;
63902;SDS011;50072;50.678;13.938;2023-03-20T03:48:12;65.38;;;30.75;;
63902;SDS011;50072;50.678;13.938;2023-03-20T03:50:51;57.50;;;30.42;;
63902;SDS011;50072;50.678;13.938;2023-03-20T03:53:29;67.03;;;32.75;;
63902;SDS011;50072;50.678;13.938;2023-03-20T03:56:03;71.82;;;35.28;;
63902;SDS011;50072;50.678;13.938;2023-03-20T04:01:10;64.68;;;31.40;;
63902;SDS011;50072;50.678;13.938;2023-03-20T04:03:42;68.75;;;33.70;;
63902;SDS011;50072;50.678;13.938;2023-03-20T04:06:12;64.32;;;31.88;;
63902;SDS011;50072;50.678;13.938;2023-03-20T04:08:42;64.70;;;32.00;;
63902;SDS011;50072;50.678;13.938;2023-03-20T04:11:12;59.35;;;31.08;;
63902;SDS011;50072;50.678;13.938;2023-03-20T04:13:43;59.40;;;31.70;;
63902;SDS011;50072;50.678;13.938;2023-03-20T04:16:13;63.60;;;32.08;;
63902;SDS011;50072;50.678;13.938;2023-03-20T04:18:39;85.55;;;41.20;;
63902;SDS011;50072;50.678;13.938;2023-03-20T04:21:08;55.65;;;29.52;;
63902;SDS011;50072;50.678;13.938;2023-03-20T04:23:35;70.88;;;36.05;;
63902;SDS011;50072;50.678;13.938;2023-03-20T04:26:04;60.17;;;30.55;;
63902;SDS011;50072;50.678;13.938;2023-03-20T04:28:30;50.45;;;26.00;;
63902;SDS011;50072;50.678;13.938;2023-03-20T04:30:57;58.25;;;29.05;;
63902;SDS011;50072;50.678;13.938;2023-03-20T04:33:24;54.92;;;27.42;;
63902;SDS011;50072;50.678;13.938;2023-03-20T04:35:50;55.25;;;27.63;;
63902;SDS011;50072;50.678;13.938;2023-03-20T04:38:17;51.83;;;26.85;;
63902;SDS011;50072;50.678;13.938;2023-03-20T04:40:45;56.88;;;29.20;;
63902;SDS011;50072;50.678;13.938;2023-03-20T04:43:13;52.58;;;27.13;;
63902;SDS011;50072;50.678;13.938;2023-03-20T04:45:39;56.20;;;29.10;;
63902;SDS011;50072;50.678;13.938;2023-03-20T04:48:06;68.03;;;29.48;;
63902;SDS011;50072;50.678;13.938;2023-03-20T04:50:38;53.83;;;27.75;;
63902;SDS011;50072;50.678;13.938;2023-03-20T04:53:10;52.13;;;27.15;;
63902;SDS011;50072;50.678;13.938;2023-03-20T04:55:38;50.23;;;26.23;;
63902;SDS011;50072;50.678;13.938;2023-03-20T05:00:38;60.47;;;26.95;;
63902;SDS011;50072;50.678;13.938;2023-03-20T05:03:06;53.08;;;28.00;;
63902;SDS011;50072;50.678;13.938;2023-03-20T05:05:32;57.00;;;27.50;;
63902;SDS011;50072;50.678;13.938;2023-03-20T05:08:04;56.60;;;27.92;;
63902;SDS011;50072;50.678;13.938;2023-03-20T05:10:30;57.22;;;29.15;;
63902;SDS011;50072;50.678;13.938;2023-03-20T05:12:56;57.28;;;29.33;;
63902;SDS011;50072;50.678;13.938;2023-03-20T05:15:22;59.55;;;29.52;;
63902;SDS011;50072;50.678;13.938;2023-03-20T05:17:49;58.85;;;30.23;;
63902;SDS011;50072;50.678;13.938;2023-03-20T05:20:15;61.50;;;30.98;;
63902;SDS011;50072;50.678;13.938;2023-03-20T05:22:40;54.97;;;29.67;;
63902;SDS011;50072;50.678;13.938;2023-03-20T05:25:06;73.13;;;35.55;;
63902;SDS011;50072;50.678;13.938;2023-03-20T05:27:33;69.22;;;32.40;;
63902;SDS011;50072;50.678;13.938;2023-03-20T05:29:58;78.65;;;35.95;;
63902;SDS011;50072;50.678;13.938;2023-03-20T05:32:24;66.28;;;31.17;;
63902;SDS011;50072;50.678;13.938;2023-03-20T05:34:50;58.95;;;29.83;;
63902;SDS011;50072;50.678;13.938;2023-03-20T05:37:16;53.53;;;28.17;;
63902;SDS011;50072;50.678;13.938;2023-03-20T05:39:42;54.50;;;29.00;;
63902;SDS011;50072;50.678;13.938;2023-03-20T05:42:08;58.50;;;30.00;;
63902;SDS011;50072;50.678;13.938;2023-03-20T05:44:33;60.80;;;30.55;;
63902;SDS011;50072;50.678;13.938;2023-03-20T05:46:59;59.92;;;29.60;;
63902;SDS011;50072;50.678;13.938;2023-03-20T05:49:25;56.92;;;28.05;;
63902;SDS011;50072;50.678;13.938;2023-03-20T05:51:51;62.45;;;30.75;;
63902;SDS011;50072;50.678;13.938;2023-03-20T05:54:17;64.70;;;31.48;;
63902;SDS011;50072;50.678;13.938;2023-03-20T05:56:43;65.57;;;31.98;;
63902;SDS011;50072;50.678;13.938;2023-03-20T05:59:10;67.25;;;31.92;;
63902;SDS011;50072;50.678;13.938;2023-03-20T06:01:38;59.63;;;31.70;;
63902;SDS011;50072;50.678;13.938;2023-03-20T06:04:04;62.00;;;32.50;;
63902;SDS011;50072;50.678;13.938;2023-03-20T06:06:31;62.58;;;31.35;;
63902;SDS011;50072;50.678;13.938;2023-03-20T06:08:58;63.30;;;32.03;;
63902;SDS011;50072;50.678;13.938;2023-03-20T06:11:31;72.97;;;35.22;;
63902;SDS011;50072;50.678;13.938;2023-03-20T06:13:57;65.03;;;31.80;;
63902;SDS011;50072;50.678;13.938;2023-03-20T06:16:25;63.90;;;31.92;;
63902;SDS011;50072;50.678;13.938;2023-03-20T06:18:51;64.00;;;32.53;;
63902;SDS011;50072;50.678;13.938;2023-03-20T06:21:26;66.63;;;32.03;;
63902;SDS011;50072;50.678;13.938;2023-03-20T06:23:52;64.50;;;32.28;;
63902;SDS011;50072;50.678;13.938;2023-03-20T06:26:19;69.22;;;35.42;;
63902;SDS011;50072;50.678;13.938;2023-03-20T06:28:47;83.90;;;43.15;;
63902;SDS011;50072;50.678;13.938;2023-03-20T06:31:13;93.78;;;47.38;;
63902;SDS011;50072;50.678;13.938;2023-03-20T06:33:39;87.85;;;45.03;;
63902;SDS011;50072;50.678;13.938;2023-03-20T06:36:06;77.40;;;40.80;;
63902;SDS011;50072;50.678;13.938;2023-03-20T06:38:33;74.65;;;38.97;;
63902;SDS011;50072;50.678;13.938;2023-03-20T06:41:00;77.53;;;39.90;;
63902;SDS011;50072;50.678;13.938;2023-03-20T06:43:28;76.93;;;39.55;;
63902;SDS011;50072;50.678;13.938;2023-03-20T06:46:03;82.63;;;39.38;;
63902;SDS011;50072;50.678;13.938;2023-03-20T06:48:30;80.10;;;40.90;;
63902;SDS011;50072;50.678;13.938;2023-03-20T06:53:39;81.45;;;42.42;;
63902;SDS011;50072;50.678;13.938;2023-03-20T06:56:09;82.90;;;41.50;;
63902;SDS011;50072;50.678;13.938;2023-03-20T06:58:37;80.60;;;40.97;;
63902;SDS011;50072;50.678;13.938;2023-03-20T07:01:10;73.55;;;38.72;;
63902;SDS011;50072;50.678;13.938;2023-03-20T07:03:38;76.03;;;38.28;;
63902;SDS011;50072;50.678;13.938;2023-03-20T07:06:04;72.47;;;39.47;;
63902;SDS011;50072;50.678;13.938;2023-03-20T07:08:31;82.47;;;41.42;;
63902;SDS011;50072;50.678;13.938;2023-03-20T07:10:57;81.90;;;42.15;;
63902;SDS011;50072;50.678;13.938;2023-03-20T07:13:23;81.72;;;43.67;;
63902;SDS011;50072;50.678;13.938;2023-03-20T07:15:49;73.22;;;39.45;;
63902;SDS011;50072;50.678;13.938;2023-03-20T07:18:15;87.22;;;43.47;;
63902;SDS011;50072;50.678;13.938;2023-03-20T07:20:41;91.50;;;41.40;;
63902;SDS011;50072;50.678;13.938;2023-03-20T07:23:06;92.78;;;42.85;;
63902;SDS011;50072;50.678;13.938;2023-03-20T07:25:32;85.93;;;43.25;;
63902;SDS011;50072;50.678;13.938;2023-03-20T07:27:58;81.82;;;41.65;;
63902;SDS011;50072;50.678;13.938;2023-03-20T07:30:24;84.53;;;43.53;;
63902;SDS011;50072;50.678;13.938;2023-03-20T07:32:51;89.75;;;44.17;;
63902;SDS011;50072;50.678;13.938;2023-03-20T07:35:17;91.85;;;45.95;;
63902;SDS011;50072;50.678;13.938;2023-03-20T07:37:42;96.68;;;47.50;;
63902;SDS011;50072;50.678;13.938;2023-03-20T07:40:09;99.25;;;50.85;;
63902;SDS011;50072;50.678;13.938;2023-03-20T07:42:35;97.32;;;50.95;;
63902;SDS011;50072;50.678;13.938;2023-03-20T07:45:01;92.03;;;48.33;;
63902;SDS011;50072;50.678;13.938;2023-03-20T07:47:36;100.95;;;51.60;;
63902;SDS011;50072;50.678;13.938;2023-03-20T07:50:08;102.82;;;48.75;;
63902;SDS011;50072;50.678;13.938;2023-03-20T07:52:46;89.97;;;45.47;;
63902;SDS011;50072;50.678;13.938;2023-03-20T07:55:19;88.20;;;46.17;;
63902;SDS011;50072;50.678;13.938;2023-03-20T07:57:52;82.38;;;44.13;;
63902;SDS011;50072;50.678;13.938;2023-03-20T08:00:25;88.35;;;45.35;;
63902;SDS011;50072;50.678;13.938;2023-03-20T08:02:57;85.20;;;45.72;;
63902;SDS011;50072;50.678;13.938;2023-03-20T08:08:05;79.70;;;41.40;;
63902;SDS011;50072;50.678;13.938;2023-03-20T08:10:32;81.10;;;40.70;;
63902;SDS011;50072;50.678;13.938;2023-03-20T08:15:38;77.55;;;40.25;;
63902;SDS011;50072;50.678;13.938;2023-03-20T08:18:04;77.47;;;39.63;;
63902;SDS011;50072;50.678;13.938;2023-03-20T08:20:30;71.53;;;36.75;;
63902;SDS011;50072;50.678;13.938;2023-03-20T08:22:56;67.10;;;36.17;;
63902;SDS011;50072;50.678;13.938;2023-03-20T08:25:22;63.25;;;34.47;;
63902;SDS011;50072;50.678;13.938;2023-03-20T08:27:48;67.15;;;36.38;;
63902;SDS011;50072;50.678;13.938;2023-03-20T08:30:14;65.07;;;34.72;;
63902;SDS011;50072;50.678;13.938;2023-03-20T08:32:40;54.70;;;30.60;;
63902;SDS011;50072;50.678;13.938;2023-03-20T08:35:06;53.20;;;31.92;;
63902;SDS011;50072;50.678;13.938;2023-03-20T08:37:33;55.30;;;30.42;;
63902;SDS011;50072;50.678;13.938;2023-03-20T08:40:00;49.85;;;29.27;;
63902;SDS011;50072;50.678;13.938;2023-03-20T08:42:26;57.63;;;29.42;;
63902;SDS011;50072;50.678;13.938;2023-03-20T08:44:52;53.35;;;28.75;;
63902;SDS011;50072;50.678;13.938;2023-03-20T08:47:18;49.58;;;28.98;;
63902;SDS011;50072;50.678;13.938;2023-03-20T08:49:44;52.67;;;28.60;;
63902;SDS011;50072;50.678;13.938;2023-03-20T08:52:10;52.50;;;28.67;;
63902;SDS011;50072;50.678;13.938;2023-03-20T08:54:36;49.03;;;26.52;;
63902;SDS011;50072;50.678;13.938;2023-03-20T08:57:03;47.28;;;27.50;;
63902;SDS011;50072;50.678;13.938;2023-03-20T08:59:38;49.90;;;26.23;;
63902;SDS011;50072;50.678;13.938;2023-03-20T09:12:08;51.75;;;27.85;;
63902;SDS011;50072;50.678;13.938;2023-03-20T09:14:34;53.90;;;29.45;;
63902;SDS011;50072;50.678;13.938;2023-03-20T09:17:01;48.20;;;26.35;;
63902;SDS011;50072;50.678;13.938;2023-03-20T09:19:27;48.70;;;26.20;;
63902;SDS011;50072;50.678;13.938;2023-03-20T09:21:52;47.58;;;26.52;;
63902;SDS011;50072;50.678;13.938;2023-03-20T09:24:18;47.80;;;25.13;;
63902;SDS011;50072;50.678;13.938;2023-03-20T09:26:44;43.50;;;24.20;;
63902;SDS011;50072;50.678;13.938;2023-03-20T09:29:10;51.78;;;24.92;;
63902;SDS011;50072;50.678;13.938;2023-03-20T09:31:36;38.65;;;23.50;;
63902;SDS011;50072;50.678;13.938;2023-03-20T09:34:02;36.78;;;21.35;;
63902;SDS011;50072;50.678;13.938;2023-03-20T09:36:28;36.10;;;20.85;;
63902;SDS011;50072;50.678;13.938;2023-03-20T09:38:54;38.15;;;20.73;;
63902;SDS011;50072;50.678;13.938;2023-03-20T09:41:20;65.45;;;29.73;;
63902;SDS011;50072;50.678;13.938;2023-03-20T09:54:51;36.95;;;20.65;;
63902;SDS011;50072;50.678;13.938;2023-03-20T10:00:23;34.53;;;18.58;;
63902;SDS011;50072;50.678;13.938;2023-03-20T10:02:52;37.00;;;18.58;;
63902;SDS011;50072;50.678;13.938;2023-03-20T10:05:26;36.92;;;17.55;;
63902;SDS011;50072;50.678;13.938;2023-03-20T10:07:54;26.52;;;14.50;;
63902;SDS011;50072;50.678;13.938;2023-03-20T10:10:29;20.80;;;10.85;;
63902;SDS011;50072;50.678;13.938;2023-03-20T10:13:07;19.55;;;10.15;;
63902;SDS011;50072;50.678;13.938;2023-03-20T10:16:05;16.75;;;8.57;;
63902;SDS011;50072;50.678;13.938;2023-03-20T10:18:33;15.50;;;7.43;;
63902;SDS011;50072;50.678;13.938;2023-03-20T10:21:04;15.73;;;9.25;;
63902;SDS011;50072;50.678;13.938;2023-03-20T10:23:50;20.45;;;9.73;;
63902;SDS011;50072;50.678;13.938;2023-03-20T10:26:25;16.25;;;7.30;;
63902;SDS011;50072;50.678;13.938;2023-03-20T10:29:00;7.15;;;4.30;;
63902;SDS011;50072;50.678;13.938;2023-03-20T10:34:07;8.80;;;5.05;;
63902;SDS011;50072;50.678;13.938;2023-03-20T10:36:50;10.75;;;4.60;;
63902;SDS011;50072;50.678;13.938;2023-03-20T10:41:55;11.07;;;5.50;;
63902;SDS011;50072;50.678;13.938;2023-03-20T10:49:36;6.32;;;3.17;;
63902;SDS011;50072;50.678;13.938;2023-03-20T10:52:09;7.28;;;3.78;;
63902;SDS011;50072;50.678;13.938;2023-03-20T10:54:41;8.27;;;3.35;;
63902;SDS011;50072;50.678;13.938;2023-03-20T10:57:16;7.53;;;3.60;;
63902;SDS011;50072;50.678;13.938;2023-03-20T10:59:49;9.93;;;3.90;;
63902;SDS011;50072;50.678;13.938;2023-03-20T11:02:17;12.65;;;4.63;;
63902;SDS011;50072;50.678;13.938;2023-03-20T11:04:47;6.82;;;3.70;;
63902;SDS011;50072;50.678;13.938;2023-03-20T11:07:18;10.75;;;3.63;;
63902;SDS011;50072;50.678;13.938;2023-03-20T11:12:36;7.45;;;3.08;;
63902;SDS011;50072;50.678;13.938;2023-03-20T11:15:19;6.40;;;3.70;;
63902;SDS011;50072;50.678;13.938;2023-03-20T11:18:01;8.75;;;3.70;;
63902;SDS011;50072;50.678;13.938;2023-03-20T11:20:39;5.70;;;2.17;;
63902;SDS011;50072;50.678;13.938;2023-03-20T11:23:10;2.50;;;1.20;;
63902;SDS011;50072;50.678;13.938;2023-03-20T11:26:00;4.38;;;1.77;;
63902;SDS011;50072;50.678;13.938;2023-03-20T11:28:32;2.42;;;1.40;;
63902;SDS011;50072;50.678;13.938;2023-03-20T11:33:45;2.47;;;1.23;;
63902;SDS011;50072;50.678;13.938;2023-03-20T11:38:49;4.90;;;2.38;;
63902;SDS011;50072;50.678;13.938;2023-03-20T11:41:20;7.82;;;3.42;;
63902;SDS011;50072;50.678;13.938;2023-03-20T11:43:49;5.85;;;2.13;;
63902;SDS011;50072;50.678;13.938;2023-03-20T11:46:15;5.30;;;2.20;;
63902;SDS011;50072;50.678;13.938;2023-03-20T11:48:45;4.80;;;2.22;;
63902;SDS011;50072;50.678;13.938;2023-03-20T11:51:18;5.97;;;2.70;;
63902;SDS011;50072;50.678;13.938;2023-03-20T11:56:20;3.38;;;1.65;;
63902;SDS011;50072;50.678;13.938;2023-03-20T11:58:55;1.88;;;1.10;;
63902;SDS011;50072;50.678;13.938;2023-03-20T12:01:28;2.10;;;0.80;;
63902;SDS011;50072;50.678;13.938;2023-03-20T12:04:12;0.80;;;0.50;;
63902;SDS011;50072;50.678;13.938;2023-03-20T12:06:44;0.73;;;0.38;;
63902;SDS011;50072;50.678;13.938;2023-03-20T12:09:34;1.23;;;0.68;;
63902;SDS011;50072;50.678;13.938;2023-03-20T12:34:12;4.25;;;1.50;;
63902;SDS011;50072;50.678;13.938;2023-03-20T12:36:53;6.50;;;2.28;;
63902;SDS011;50072;50.678;13.938;2023-03-20T12:44:54;2.83;;;1.25;;
63902;SDS011;50072;50.678;13.938;2023-03-20T13:10:47;4.60;;;2.15;;
63902;SDS011;50072;50.678;13.938;2023-03-20T13:16:30;4.78;;;2.08;;
63902;SDS011;50072;50.678;13.938;2023-03-20T13:19:21;8.68;;;4.50;;
63902;SDS011;50072;50.678;13.938;2023-03-20T13:22:50;3.53;;;1.80;;
63902;SDS011;50072;50.678;13.938;2023-03-20T13:25:22;3.85;;;1.80;;
63902;SDS011;50072;50.678;13.938;2023-03-20T13:28:05;3.67;;;1.70;;
63902;SDS011;50072;50.678;13.938;2023-03-20T13:30:53;3.25;;;1.50;;
63902;SDS011;50072;50.678;13.938;2023-03-20T13:42:28;2.92;;;1.65;;
63902;SDS011;50072;50.678;13.938;2023-03-20T13:45:02;5.85;;;3.00;;
63902;SDS011;50072;50.678;13.938;2023-03-20T13:47:31;3.92;;;2.10;;
63902;SDS011;50072;50.678;13.938;2023-03-20T13:52:29;3.05;;;1.70;;
63902;SDS011;50072;50.678;13.938;2023-03-20T13:55:06;2.70;;;1.50;;
63902;SDS011;50072;50.678;13.938;2023-03-20T14:03:30;3.95;;;1.75;;
63902;SDS011;50072;50.678;13.938;2023-03-20T14:06:41;6.30;;;2.97;;
63902;SDS011;50072;50.678;13.938;2023-03-20T14:08:54;8.18;;;3.47;;
63902;SDS011;50072;50.678;13.938;2023-03-20T14:14:02;5.00;;;3.28;;
63902;SDS011;50072;50.678;13.938;2023-03-20T14:16:39;4.68;;;2.88;;
63902;SDS011;50072;50.678;13.938;2023-03-20T14:21:38;4.22;;;2.50;;
63902;SDS011;50072;50.678;13.938;2023-03-20T14:24:12;4.95;;;2.67;;
63902;SDS011;50072;50.678;13.938;2023-03-20T14:26:42;4.68;;;2.45;;
63902;SDS011;50072;50.678;13.938;2023-03-20T14:29:21;12.50;;;5.53;;
63902;SDS011;50072;50.678;13.938;2023-03-20T14:34:45;8.32;;;3.90;;
63902;SDS011;50072;50.678;13.938;2023-03-20T14:37:48;3.97;;;1.65;;
63902;SDS011;50072;50.678;13.938;2023-03-20T14:45:52;7.32;;;3.42;;
63902;SDS011;50072;50.678;13.938;2023-03-20T14:51:23;4.75;;;1.75;;
63902;SDS011;50072;50.678;13.938;2023-03-20T14:53:57;1.50;;;1.02;;
63902;SDS011;50072;50.678;13.938;2023-03-20T14:56:55;3.53;;;1.77;;
63902;SDS011;50072;50.678;13.938;2023-03-20T14:59:35;1.33;;;0.75;;
63902;SDS011;50072;50.678;13.938;2023-03-20T15:02:01;2.63;;;1.10;;
63902;SDS011;50072;50.678;13.938;2023-03-20T15:07:05;2.45;;;1.30;;
63902;SDS011;50072;50.678;13.938;2023-03-20T15:12:07;3.28;;;1.77;;
63902;SDS011;50072;50.678;13.938;2023-03-20T15:14:39;3.55;;;1.95;;
63902;SDS011;50072;50.678;13.938;2023-03-20T15:17:16;6.40;;;3.13;;
63902;SDS011;50072;50.678;13.938;2023-03-20T15:19:43;5.38;;;2.13;;
63902;SDS011;50072;50.678;13.938;2023-03-20T15:22:13;5.57;;;2.58;;
63902;SDS011;50072;50.678;13.938;2023-03-20T15:24:41;7.43;;;2.83;;
63902;SDS011;50072;50.678;13.938;2023-03-20T15:27:22;2.38;;;1.33;;
63902;SDS011;50072;50.678;13.938;2023-03-20T15:29:55;5.22;;;1.90;;
63902;SDS011;50072;50.678;13.938;2023-03-20T15:32:34;5.95;;;2.92;;
63902;SDS011;50072;50.678;13.938;2023-03-20T15:35:04;3.88;;;2.08;;
63902;SDS011;50072;50.678;13.938;2023-03-20T15:40:20;13.52;;;5.88;;
63902;SDS011;50072;50.678;13.938;2023-03-20T15:45:39;7.70;;;3.40;;
63902;SDS011;50072;50.678;13.938;2023-03-20T15:50:39;6.00;;;2.40;;
63902;SDS011;50072;50.678;13.938;2023-03-20T15:53:19;9.93;;;2.97;;
63902;SDS011;50072;50.678;13.938;2023-03-20T15:55:52;2.88;;;1.50;;
63902;SDS011;50072;50.678;13.938;2023-03-20T15:58:39;6.75;;;3.78;;
63902;SDS011;50072;50.678;13.938;2023-03-20T16:01:08;10.27;;;5.15;;
63902;SDS011;50072;50.678;13.938;2023-03-20T16:03:42;20.25;;;9.80;;
63902;SDS011;50072;50.678;13.938;2023-03-20T16:06:10;7.10;;;3.45;;
63902;SDS011;50072;50.678;13.938;2023-03-20T16:08:41;10.02;;;3.08;;
63902;SDS011;50072;50.678;13.938;2023-03-20T16:13:45;13.10;;;6.55;;
63902;SDS011;50072;50.678;13.938;2023-03-20T16:16:13;4.60;;;2.28;;
63902;SDS011;50072;50.678;13.938;2023-03-20T16:18:41;9.70;;;3.38;;
63902;SDS011;50072;50.678;13.938;2023-03-20T16:21:31;4.80;;;2.38;;
63902;SDS011;50072;50.678;13.938;2023-03-20T16:23:58;3.55;;;2.25;;
63902;SDS011;50072;50.678;13.938;2023-03-20T16:26:26;18.70;;;8.77;;
63902;SDS011;50072;50.678;13.938;2023-03-20T16:28:56;7.82;;;3.45;;
63902;SDS011;50072;50.678;13.938;2023-03-20T16:33:51;3.72;;;1.90;;
63902;SDS011;50072;50.678;13.938;2023-03-20T16:36:37;4.60;;;2.30;;
63902;SDS011;50072;50.678;13.938;2023-03-20T16:41:41;18.20;;;7.22;;
63902;SDS011;50072;50.678;13.938;2023-03-20T16:52:00;15.20;;;7.32;;
63902;SDS011;50072;50.678;13.938;2023-03-20T16:54:30;4.80;;;2.13;;
63902;SDS011;50072;50.678;13.938;2023-03-20T16:56:59;7.07;;;3.40;;
63902;SDS011;50072;50.678;13.938;2023-03-20T16:59:29;7.32;;;3.78;;
63902;SDS011;50072;50.678;13.938;2023-03-20T17:01:58;9.75;;;5.15;;
63902;SDS011;50072;50.678;13.938;2023-03-20T17:04:28;16.30;;;6.53;;
63902;SDS011;50072;50.678;13.938;2023-03-20T17:07:00;109.88;;;29.20;;
63902;SDS011;50072;50.678;13.938;2023-03-20T17:09:31;151.57;;;52.83;;
63902;SDS011;50072;50.678;13.938;2023-03-20T17:12:03;70.97;;;25.45;;
63902;SDS011;50072;50.678;13.938;2023-03-20T17:14:32;24.13;;;10.07;;
63902;SDS011;50072;50.678;13.938;2023-03-20T17:16:59;57.85;;;19.65;;
63902;SDS011;50072;50.678;13.938;2023-03-20T17:19:25;64.07;;;22.02;;
63902;SDS011;50072;50.678;13.938;2023-03-20T17:21:52;39.78;;;16.92;;
63902;SDS011;50072;50.678;13.938;2023-03-20T17:24:18;15.68;;;6.05;;
63902;SDS011;50072;50.678;13.938;2023-03-20T17:29:38;27.13;;;13.30;;
63902;SDS011;50072;50.678;13.938;2023-03-20T17:32:12;13.13;;;7.97;;
63902;SDS011;50072;50.678;13.938;2023-03-20T17:34:45;14.82;;;6.75;;
63902;SDS011;50072;50.678;13.938;2023-03-20T17:37:13;11.07;;;6.15;;
63902;SDS011;50072;50.678;13.938;2023-03-20T17:39:42;5.82;;;3.15;;
63902;SDS011;50072;50.678;13.938;2023-03-20T17:42:20;8.90;;;3.92;;
63902;SDS011;50072;50.678;13.938;2023-03-20T17:44:55;11.10;;;6.10;;
63902;SDS011;50072;50.678;13.938;2023-03-20T17:47:23;12.02;;;5.85;;
63902;SDS011;50072;50.678;13.938;2023-03-20T17:49:53;7.88;;;4.60;;
63902;SDS011;50072;50.678;13.938;2023-03-20T17:52:21;16.65;;;8.50;;
63902;SDS011;50072;50.678;13.938;2023-03-20T17:57:38;7.00;;;3.97;;
63902;SDS011;50072;50.678;13.938;2023-03-20T18:02:38;8.48;;;5.18;;
63902;SDS011;50072;50.678;13.938;2023-03-20T18:05:04;7.75;;;4.13;;
63902;SDS011;50072;50.678;13.938;2023-03-20T18:07:38;5.68;;;3.72;;
63902;SDS011;50072;50.678;13.938;2023-03-20T18:10:24;6.20;;;3.80;;
63902;SDS011;50072;50.678;13.938;2023-03-20T18:15:30;6.70;;;3.88;;
63902;SDS011;50072;50.678;13.938;2023-03-20T18:18:07;10.10;;;5.13;;
63902;SDS011;50072;50.678;13.938;2023-03-20T18:23:12;8.15;;;4.35;;
63902;SDS011;50072;50.678;13.938;2023-03-20T18:25:39;10.88;;;5.35;;
63902;SDS011;50072;50.678;13.938;2023-03-20T18:28:11;7.63;;;4.95;;
63902;SDS011;50072;50.678;13.938;2023-03-20T18:30:45;9.23;;;4.88;;
63902;SDS011;50072;50.678;13.938;2023-03-20T18:33:12;10.15;;;6.20;;
63902;SDS011;50072;50.678;13.938;2023-03-20T18:35:38;25.02;;;11.98;;
63902;SDS011;50072;50.678;13.938;2023-03-20T18:38:05;10.73;;;6.32;;
63902;SDS011;50072;50.678;13.938;2023-03-20T18:40:36;12.43;;;5.65;;
63902;SDS011;50072;50.678;13.938;2023-03-20T18:43:02;10.05;;;5.60;;
63902;SDS011;50072;50.678;13.938;2023-03-20T18:45:29;18.60;;;9.77;;
63902;SDS011;50072;50.678;13.938;2023-03-20T18:47:58;15.68;;;7.80;;
63902;SDS011;50072;50.678;13.938;2023-03-20T18:50:33;12.98;;;6.50;;
63902;SDS011;50072;50.678;13.938;2023-03-20T18:53:03;43.35;;;18.55;;
63902;SDS011;50072;50.678;13.938;2023-03-20T18:55:31;20.80;;;9.68;;
63902;SDS011;50072;50.678;13.938;2023-03-20T18:57:58;18.42;;;8.93;;
63902;SDS011;50072;50.678;13.938;2023-03-20T19:00:31;25.25;;;11.80;;
63902;SDS011;50072;50.678;13.938;2023-03-20T19:03:03;18.20;;;9.38;;
63902;SDS011;50072;50.678;13.938;2023-03-20T19:05:29;7.18;;;4.40;;